PWSweather.com
Personal Weather Stations
Station Observations
KNCCHINA3
Red Tractor Trail, China Grove, NC 28023

Red Tractor TrailChina Grove, NC 28023

Lat: 35.59751, Lon: -80.60201

Elevation: 800

Station Type: Oregon Scientific WMR 968

http://www.joesweathergarage.com

High Low Average
Temperature 30.1°F-1.1°C 12.4°F-10.9°C 20.6°F-6.3°C
Dew Point 3.2°F-16.0°C -19.0°F-28.3°C -3.9°F-19.9°C
Winds 16.9 mph 27.2 kmh Calm Calm 8.0 mph ENE12.9 kmh ENE
Wind Gusts 27.8 mph44.7 kmh -- 14.0 mph22.5 kmh
Humidity 48% 12% 35%
Pressure 30.53 in1033.9 mb 30.30 in1026.1 mb -
Precipitation 0.00 in0.0 mm - -
Hour Temp Dew Point Humidity Winds Wind Gusts Pressure Precip Precip Rate Daily Precip Total
12:04 AM 23.1°F-4.9°C -2.6°F-19.2°C 32% 9.0 mph NE14.5 kmh NE 17.0 mph27.4 kmh 30.30 in1026.1 mb 0.00 in0.0 mm 0.00 in0.0 mm 0.00 in0.0 mm
12:10 AM 23.1°F-4.9°C -2.6°F-19.2°C 32% 6.3 mph E10.1 kmh E 13.0 mph20.9 kmh 30.33 in1027.1 mb 0.00 in0.0 mm 0.00 in0.0 mm 0.00 in0.0 mm
12:15 AM 23.1°F-4.9°C -2.6°F-19.2°C 32% 9.6 mph NE15.4 kmh NE 13.0 mph20.9 kmh 30.33 in1027.1 mb 0.00 in0.0 mm 0.00 in0.0 mm 0.00 in0.0 mm
12:20 AM 23.1°F-4.9°C -2.6°F-19.2°C 32% 9.4 mph ENE15.1 kmh ENE 15.6 mph25.1 kmh 30.33 in1027.1 mb 0.00 in0.0 mm 0.00 in0.0 mm 0.00 in0.0 mm
12:25 AM 23.1°F-4.9°C -2.6°F-19.2°C 32% 5.3 mph NE8.5 kmh NE 15.6 mph25.1 kmh 30.33 in1027.1 mb 0.00 in0.0 mm 0.00 in0.0 mm 0.00 in0.0 mm
12:30 AM 23.1°F-4.9°C -2.6°F-19.2°C 32% 5.2 mph E8.4 kmh E 8.6 mph13.8 kmh 30.33 in1027.1 mb 0.00 in0.0 mm 0.00 in0.0 mm 0.00 in0.0 mm
12:35 AM 22.9°F-5.1°C -2.1°F-18.9°C 33% 5.6 mph NE9.0 kmh NE 11.2 mph18.0 kmh 30.33 in1027.1 mb 0.00 in0.0 mm 0.00 in0.0 mm 0.00 in0.0 mm
12:40 AM 22.9°F-5.1°C -2.8°F-19.3°C 32% 7.0 mph NE11.3 kmh NE 12.0 mph19.3 kmh 30.30 in1026.1 mb 0.00 in0.0 mm 0.00 in0.0 mm 0.00 in0.0 mm
12:45 AM 22.9°F-5.1°C -2.8°F-19.3°C 32% 11.0 mph ENE17.7 kmh ENE 13.0 mph20.9 kmh 30.30 in1026.1 mb 0.00 in0.0 mm 0.00 in0.0 mm 0.00 in0.0 mm
12:50 AM 22.9°F-5.1°C -2.8°F-19.3°C 32% 8.8 mph NNE14.2 kmh NNE 13.0 mph20.9 kmh 30.30 in1026.1 mb 0.00 in0.0 mm 0.00 in0.0 mm 0.00 in0.0 mm
12:55 AM 22.9°F-5.1°C -2.8°F-19.3°C 32% 7.2 mph NE11.6 kmh NE 17.4 mph28.0 kmh 30.30 in1026.1 mb 0.00 in0.0 mm 0.00 in0.0 mm 0.00 in0.0 mm
01:00 AM 22.9°F-5.1°C -4.1°F-20.1°C 30% 10.7 mph ENE17.2 kmh ENE 17.4 mph28.0 kmh 30.30 in1026.1 mb 0.00 in0.0 mm 0.00 in0.0 mm 0.00 in0.0 mm
01:05 AM 22.9°F-5.1°C -2.8°F-19.3°C 32% 7.1 mph ENE11.4 kmh ENE 17.4 mph28.0 kmh 30.30 in1026.1 mb 0.00 in0.0 mm 0.00 in0.0 mm 0.00 in0.0 mm
01:11 AM 22.9°F-5.1°C -2.8°F-19.3°C 32% 6.9 mph NE11.1 kmh NE 11.6 mph18.7 kmh 30.33 in1027.1 mb 0.00 in0.0 mm 0.00 in0.0 mm 0.00 in0.0 mm
01:16 AM 22.9°F-5.1°C -2.8°F-19.3°C 32% 7.3 mph NE11.7 kmh NE 11.2 mph18.0 kmh 30.33 in1027.1 mb 0.00 in0.0 mm 0.00 in0.0 mm 0.00 in0.0 mm
01:21 AM 22.9°F-5.1°C -2.8°F-19.3°C 32% 12.0 mph NE19.3 kmh NE 17.0 mph27.4 kmh 30.33 in1027.1 mb 0.00 in0.0 mm 0.00 in0.0 mm 0.00 in0.0 mm
01:26 AM 22.9°F-5.1°C -2.8°F-19.3°C 32% 8.2 mph NE13.2 kmh NE 17.0 mph27.4 kmh 30.30 in1026.1 mb 0.00 in0.0 mm 0.00 in0.0 mm 0.00 in0.0 mm
01:31 AM 22.9°F-5.1°C -2.8°F-19.3°C 32% 6.2 mph NE10.0 kmh NE 13.0 mph20.9 kmh 30.30 in1026.1 mb 0.00 in0.0 mm 0.00 in0.0 mm 0.00 in0.0 mm
01:36 AM 22.9°F-5.1°C -2.8°F-19.3°C 32% 7.8 mph NE12.6 kmh NE 11.2 mph18.0 kmh 30.30 in1026.1 mb 0.00 in0.0 mm 0.00 in0.0 mm 0.00 in0.0 mm
01:41 AM 22.9°F-5.1°C -4.1°F-20.1°C 30% 7.5 mph E12.1 kmh E 12.0 mph19.3 kmh 30.33 in1027.1 mb 0.00 in0.0 mm 0.00 in0.0 mm 0.00 in0.0 mm
01:46 AM 22.7°F-5.2°C -4.3°F-20.2°C 30% 10.9 mph NE17.5 kmh NE 15.6 mph25.1 kmh 30.33 in1027.1 mb 0.00 in0.0 mm 0.00 in0.0 mm 0.00 in0.0 mm
01:53 AM 22.7°F-5.2°C -6.4°F-21.3°C 27% 9.9 mph ENE15.9 kmh ENE 15.6 mph25.1 kmh 30.33 in1027.1 mb 0.00 in0.0 mm 0.00 in0.0 mm 0.00 in0.0 mm
01:57 AM 22.7°F-5.2°C -4.3°F-20.2°C 30% 7.3 mph NE11.7 kmh NE 12.6 mph20.3 kmh 30.33 in1027.1 mb 0.00 in0.0 mm 0.00 in0.0 mm 0.00 in0.0 mm
02:03 AM 22.5°F-5.3°C -3.1°F-19.5°C 32% 5.5 mph NE8.9 kmh NE 12.6 mph20.3 kmh 30.33 in1027.1 mb 0.00 in0.0 mm 0.00 in0.0 mm 0.00 in0.0 mm
02:08 AM 22.2°F-5.4°C -3.4°F-19.7°C 32% 5.9 mph NE9.5 kmh NE 12.6 mph20.3 kmh 30.33 in1027.1 mb 0.00 in0.0 mm 0.00 in0.0 mm 0.00 in0.0 mm
02:13 AM 21.8°F-5.7°C -5.1°F-20.6°C 30% 9.2 mph NE14.8 kmh NE 12.0 mph19.3 kmh 30.33 in1027.1 mb 0.00 in0.0 mm 0.00 in0.0 mm 0.00 in0.0 mm
02:18 AM 21.6°F-5.8°C -5.2°F-20.7°C 30% 7.3 mph ENE11.7 kmh ENE 12.0 mph19.3 kmh 30.33 in1027.1 mb 0.00 in0.0 mm 0.00 in0.0 mm 0.00 in0.0 mm
02:23 AM 21.3°F-5.9°C -5.5°F-20.8°C 30% 6.7 mph NE10.8 kmh NE 12.0 mph19.3 kmh 30.33 in1027.1 mb 0.00 in0.0 mm 0.00 in0.0 mm 0.00 in0.0 mm
02:28 AM 21.1°F-6.1°C -4.3°F-20.2°C 32% 4.2 mph NE6.8 kmh NE 12.0 mph19.3 kmh 30.36 in1028.1 mb 0.00 in0.0 mm 0.00 in0.0 mm 0.00 in0.0 mm
02:33 AM 20.7°F-6.3°C -4.7°F-20.4°C 32% 5.2 mph NE8.4 kmh NE 11.2 mph18.0 kmh 30.36 in1028.1 mb 0.00 in0.0 mm 0.00 in0.0 mm 0.00 in0.0 mm
02:38 AM 20.6°F-6.3°C -4.8°F-20.4°C 32% 6.4 mph NE10.3 kmh NE 9.8 mph15.8 kmh 30.36 in1028.1 mb 0.00 in0.0 mm 0.00 in0.0 mm 0.00 in0.0 mm
02:44 AM 20.4°F-6.4°C -4.3°F-20.2°C 33% 6.7 mph NE10.8 kmh NE 9.8 mph15.8 kmh 30.33 in1027.1 mb 0.00 in0.0 mm 0.00 in0.0 mm 0.00 in0.0 mm
02:49 AM 20.2°F-6.6°C -4.5°F-20.3°C 33% 5.3 mph NE8.5 kmh NE 8.6 mph13.8 kmh 30.33 in1027.1 mb 0.00 in0.0 mm 0.00 in0.0 mm 0.00 in0.0 mm
02:54 AM 19.9°F-6.7°C -4.9°F-20.5°C 33% 5.1 mph NE8.2 kmh NE 8.6 mph13.8 kmh 30.36 in1028.1 mb 0.00 in0.0 mm 0.00 in0.0 mm 0.00 in0.0 mm
02:59 AM 19.8°F-6.8°C -4.3°F-20.2°C 34% 6.9 mph NE11.1 kmh NE 10.8 mph17.4 kmh 30.36 in1028.1 mb 0.00 in0.0 mm 0.00 in0.0 mm 0.00 in0.0 mm
03:05 AM 19.6°F-6.9°C -4.5°F-20.3°C 34% 6.5 mph NE10.5 kmh NE 10.8 mph17.4 kmh 30.36 in1028.1 mb 0.00 in0.0 mm 0.00 in0.0 mm 0.00 in0.0 mm
03:10 AM 19.6°F-6.9°C -4.5°F-20.3°C 34% 5.8 mph NE9.3 kmh NE 9.8 mph15.8 kmh 30.36 in1028.1 mb 0.00 in0.0 mm 0.00 in0.0 mm 0.00 in0.0 mm
03:15 AM 19.4°F-7.0°C -4.1°F-20.1°C 35% 6.6 mph NNE10.6 kmh NNE 9.8 mph15.8 kmh 30.36 in1028.1 mb 0.00 in0.0 mm 0.00 in0.0 mm 0.00 in0.0 mm
03:20 AM 19.2°F-7.1°C -4.3°F-20.2°C 35% 5.9 mph NE9.5 kmh NE 8.6 mph13.8 kmh 30.36 in1028.1 mb 0.00 in0.0 mm 0.00 in0.0 mm 0.00 in0.0 mm
03:25 AM 18.9°F-7.3°C -4.5°F-20.3°C 35% 4.0 mph NE6.4 kmh NE 8.6 mph13.8 kmh 30.36 in1028.1 mb 0.00 in0.0 mm 0.00 in0.0 mm 0.00 in0.0 mm
03:30 AM 18.7°F-7.4°C -4.7°F-20.4°C 35% 3.7 mph NE6.0 kmh NE 8.0 mph12.9 kmh 30.36 in1028.1 mb 0.00 in0.0 mm 0.00 in0.0 mm 0.00 in0.0 mm
03:36 AM 18.5°F-7.5°C -4.9°F-20.5°C 35% 2.5 mph NE4.0 kmh NE 5.8 mph9.3 kmh 30.36 in1028.1 mb 0.00 in0.0 mm 0.00 in0.0 mm 0.00 in0.0 mm
03:41 AM 18.1°F-7.7°C -5.2°F-20.7°C 35% 4.5 mph ENE7.2 kmh ENE 8.0 mph12.9 kmh 30.36 in1028.1 mb 0.00 in0.0 mm 0.00 in0.0 mm 0.00 in0.0 mm
03:46 AM 18.1°F-7.7°C -5.2°F-20.7°C 35% 5.9 mph ENE9.5 kmh ENE 8.0 mph12.9 kmh 30.36 in1028.1 mb 0.00 in0.0 mm 0.00 in0.0 mm 0.00 in0.0 mm
03:52 AM 18.1°F-7.7°C -5.2°F-20.7°C 35% 4.2 mph ENE6.8 kmh ENE 8.0 mph12.9 kmh 30.36 in1028.1 mb 0.00 in0.0 mm 0.00 in0.0 mm 0.00 in0.0 mm
03:56 AM 18.1°F-7.7°C -5.2°F-20.7°C 35% 4.4 mph NE7.1 kmh NE 7.2 mph11.6 kmh 30.39 in1029.1 mb 0.00 in0.0 mm 0.00 in0.0 mm 0.00 in0.0 mm
04:02 AM 18.0°F-7.8°C -4.7°F-20.4°C 36% 4.4 mph ENE7.1 kmh ENE 7.2 mph11.6 kmh 30.39 in1029.1 mb 0.00 in0.0 mm 0.00 in0.0 mm 0.00 in0.0 mm
04:06 AM 18.0°F-7.8°C -4.7°F-20.4°C 36% 6.6 mph NE10.6 kmh NE 8.6 mph13.8 kmh 30.39 in1029.1 mb 0.00 in0.0 mm 0.00 in0.0 mm 0.00 in0.0 mm
04:25 AM 17.8°F-7.9°C -4.3°F-20.2°C 37% 7.5 mph NNE12.1 kmh NNE 13.0 mph20.9 kmh 30.39 in1029.1 mb 0.00 in0.0 mm 0.00 in0.0 mm 0.00 in0.0 mm
04:35 AM 17.6°F-8.0°C -4.0°F-20.0°C 38% 5.4 mph NNE8.7 kmh NNE 9.8 mph15.8 kmh 30.39 in1029.1 mb 0.00 in0.0 mm 0.00 in0.0 mm 0.00 in0.0 mm
04:41 AM 17.4°F-8.1°C -4.1°F-20.1°C 38% 6.8 mph NNE10.9 kmh NNE 8.0 mph12.9 kmh 30.39 in1029.1 mb 0.00 in0.0 mm 0.00 in0.0 mm 0.00 in0.0 mm
04:45 AM 17.1°F-8.3°C -4.4°F-20.2°C 38% 5.8 mph NNE9.3 kmh NNE 8.0 mph12.9 kmh 30.39 in1029.1 mb 0.00 in0.0 mm 0.00 in0.0 mm 0.00 in0.0 mm
04:51 AM 16.9°F-8.4°C -4.0°F-20.0°C 39% 5.7 mph NNE9.2 kmh NNE 8.0 mph12.9 kmh 30.39 in1029.1 mb 0.00 in0.0 mm 0.00 in0.0 mm 0.00 in0.0 mm
04:56 AM 16.9°F-8.4°C -3.5°F-19.7°C 40% 8.6 mph NNE13.8 kmh NNE 10.8 mph17.4 kmh 30.39 in1029.1 mb 0.00 in0.0 mm 0.00 in0.0 mm 0.00 in0.0 mm
05:01 AM 16.7°F-8.5°C -3.7°F-19.8°C 40% 7.6 mph NNE12.2 kmh NNE 10.8 mph17.4 kmh 30.39 in1029.1 mb 0.00 in0.0 mm 0.00 in0.0 mm 0.00 in0.0 mm
05:06 AM 16.5°F-8.6°C -3.3°F-19.6°C 41% 7.4 mph NNE11.9 kmh NNE 9.8 mph15.8 kmh 30.39 in1029.1 mb 0.00 in0.0 mm 0.00 in0.0 mm 0.00 in0.0 mm
05:12 AM 16.5°F-8.6°C -3.3°F-19.6°C 41% 6.5 mph NE10.5 kmh NE 10.8 mph17.4 kmh 30.39 in1029.1 mb 0.00 in0.0 mm 0.00 in0.0 mm 0.00 in0.0 mm
05:17 AM 16.3°F-8.7°C -3.5°F-19.7°C 41% 7.6 mph NNE12.2 kmh NNE 10.8 mph17.4 kmh 30.39 in1029.1 mb 0.00 in0.0 mm 0.00 in0.0 mm 0.00 in0.0 mm
05:25 AM 16.2°F-8.8°C -3.1°F-19.5°C 42% 6.1 mph NE9.8 kmh NE 10.8 mph17.4 kmh 30.39 in1029.1 mb 0.00 in0.0 mm 0.00 in0.0 mm 0.00 in0.0 mm
05:30 AM 16.0°F-8.9°C -3.3°F-19.6°C 42% 6.3 mph NE10.1 kmh NE 8.6 mph13.8 kmh 30.39 in1029.1 mb 0.00 in0.0 mm 0.00 in0.0 mm 0.00 in0.0 mm
05:36 AM 15.8°F-9.0°C -2.9°F-19.4°C 43% 7.2 mph NE11.6 kmh NE 10.8 mph17.4 kmh 30.39 in1029.1 mb 0.00 in0.0 mm 0.00 in0.0 mm 0.00 in0.0 mm
05:41 AM 15.8°F-9.0°C -2.5°F-19.2°C 44% 6.4 mph NNE10.3 kmh NNE 10.8 mph17.4 kmh 30.39 in1029.1 mb 0.00 in0.0 mm 0.00 in0.0 mm 0.00 in0.0 mm
05:48 AM 15.4°F-9.2°C -2.8°F-19.3°C 44% 5.0 mph NNE8.0 kmh NNE 9.8 mph15.8 kmh 30.39 in1029.1 mb 0.00 in0.0 mm 0.00 in0.0 mm 0.00 in0.0 mm
05:53 AM 15.3°F-9.3°C -2.9°F-19.4°C 44% 4.7 mph NNE7.6 kmh NNE 7.6 mph12.2 kmh 30.39 in1029.1 mb 0.00 in0.0 mm 0.00 in0.0 mm 0.00 in0.0 mm
05:58 AM 15.3°F-9.3°C -2.9°F-19.4°C 44% 5.8 mph NNE9.3 kmh NNE 7.6 mph12.2 kmh 30.42 in1030.1 mb 0.00 in0.0 mm 0.00 in0.0 mm 0.00 in0.0 mm
06:03 AM 15.3°F-9.3°C -2.9°F-19.4°C 44% 5.6 mph NNE9.0 kmh NNE 8.6 mph13.8 kmh 30.42 in1030.1 mb 0.00 in0.0 mm 0.00 in0.0 mm 0.00 in0.0 mm
06:08 AM 15.1°F-9.4°C -3.1°F-19.5°C 44% 5.3 mph NNE8.5 kmh NNE 8.6 mph13.8 kmh 30.42 in1030.1 mb 0.00 in0.0 mm 0.00 in0.0 mm 0.00 in0.0 mm
06:13 AM 14.9°F-9.5°C -3.3°F-19.6°C 44% 5.2 mph NE8.4 kmh NE 8.0 mph12.9 kmh 30.45 in1031.2 mb 0.00 in0.0 mm 0.00 in0.0 mm 0.00 in0.0 mm
06:18 AM 14.9°F-9.5°C -3.3°F-19.6°C 44% 6.1 mph NNE9.8 kmh NNE 8.0 mph12.9 kmh 30.45 in1031.2 mb 0.00 in0.0 mm 0.00 in0.0 mm 0.00 in0.0 mm
06:23 AM 14.5°F-9.7°C -3.6°F-19.8°C 44% 5.3 mph NNE8.5 kmh NNE 8.0 mph12.9 kmh 30.45 in1031.2 mb 0.00 in0.0 mm 0.00 in0.0 mm 0.00 in0.0 mm
06:28 AM 14.4°F-9.8°C -3.7°F-19.8°C 44% 5.0 mph NE8.0 kmh NE 6.8 mph10.9 kmh 30.45 in1031.2 mb 0.00 in0.0 mm 0.00 in0.0 mm 0.00 in0.0 mm
06:33 AM 14.4°F-9.8°C -3.7°F-19.8°C 44% 4.4 mph NE7.1 kmh NE 6.8 mph10.9 kmh 30.45 in1031.2 mb 0.00 in0.0 mm 0.00 in0.0 mm 0.00 in0.0 mm
06:39 AM 14.2°F-9.9°C -3.9°F-19.9°C 44% 4.4 mph NNE7.1 kmh NNE 6.8 mph10.9 kmh 30.42 in1030.1 mb 0.00 in0.0 mm 0.00 in0.0 mm 0.00 in0.0 mm
06:44 AM 14.2°F-9.9°C -3.4°F-19.7°C 45% 5.5 mph NNE8.9 kmh NNE 7.2 mph11.6 kmh 30.42 in1030.1 mb 0.00 in0.0 mm 0.00 in0.0 mm 0.00 in0.0 mm
06:49 AM 14.2°F-9.9°C -3.4°F-19.7°C 45% 5.3 mph NNE8.5 kmh NNE 7.6 mph12.2 kmh 30.42 in1030.1 mb 0.00 in0.0 mm 0.00 in0.0 mm 0.00 in0.0 mm
06:54 AM 14.0°F-10.0°C -3.6°F-19.8°C 45% 5.8 mph NNE9.3 kmh NNE 7.6 mph12.2 kmh 30.42 in1030.1 mb 0.00 in0.0 mm 0.00 in0.0 mm 0.00 in0.0 mm
06:59 AM 14.0°F-10.0°C -3.1°F-19.5°C 46% 5.4 mph NNE8.7 kmh NNE 7.2 mph11.6 kmh 30.42 in1030.1 mb 0.00 in0.0 mm 0.00 in0.0 mm 0.00 in0.0 mm
07:04 AM 14.0°F-10.0°C -3.1°F-19.5°C 46% 7.0 mph NNE11.3 kmh NNE 11.2 mph18.0 kmh 30.42 in1030.1 mb 0.00 in0.0 mm 0.00 in0.0 mm 0.00 in0.0 mm
07:09 AM 13.8°F-10.1°C -3.3°F-19.6°C 46% 6.6 mph NNE10.6 kmh NNE 11.2 mph18.0 kmh 30.45 in1031.2 mb 0.00 in0.0 mm 0.00 in0.0 mm 0.00 in0.0 mm
07:14 AM 13.8°F-10.1°C -3.3°F-19.6°C 46% 6.0 mph N9.7 kmh N 8.0 mph12.9 kmh 30.45 in1031.2 mb 0.00 in0.0 mm 0.00 in0.0 mm 0.00 in0.0 mm
07:19 AM 13.8°F-10.1°C -3.3°F-19.6°C 46% 4.9 mph NNE7.9 kmh NNE 8.6 mph13.8 kmh 30.45 in1031.2 mb 0.00 in0.0 mm 0.00 in0.0 mm 0.00 in0.0 mm
07:24 AM 13.8°F-10.1°C -3.3°F-19.6°C 46% 6.3 mph N10.1 kmh N 8.6 mph13.8 kmh 30.47 in1031.8 mb 0.00 in0.0 mm 0.00 in0.0 mm 0.00 in0.0 mm
07:29 AM 13.6°F-10.2°C -3.5°F-19.7°C 46% 5.7 mph NNE9.2 kmh NNE 7.6 mph12.2 kmh 30.47 in1031.8 mb 0.00 in0.0 mm 0.00 in0.0 mm 0.00 in0.0 mm
07:34 AM 13.6°F-10.2°C -3.5°F-19.7°C 46% 4.8 mph NNE7.7 kmh NNE 9.4 mph15.1 kmh 30.47 in1031.8 mb 0.00 in0.0 mm 0.00 in0.0 mm 0.00 in0.0 mm
07:39 AM 13.6°F-10.2°C -3.5°F-19.7°C 46% 6.1 mph NNE9.8 kmh NNE 9.4 mph15.1 kmh 30.47 in1031.8 mb 0.00 in0.0 mm 0.00 in0.0 mm 0.00 in0.0 mm
07:44 AM 13.6°F-10.2°C -3.5°F-19.7°C 46% 5.1 mph NE8.2 kmh NE 8.6 mph13.8 kmh 30.47 in1031.8 mb 0.00 in0.0 mm 0.00 in0.0 mm 0.00 in0.0 mm
07:49 AM 13.6°F-10.2°C -3.5°F-19.7°C 46% 5.4 mph NE8.7 kmh NE 8.0 mph12.9 kmh 30.47 in1031.8 mb 0.00 in0.0 mm 0.00 in0.0 mm 0.00 in0.0 mm
07:54 AM 13.6°F-10.2°C -3.5°F-19.7°C 46% 6.2 mph NE10.0 kmh NE 9.4 mph15.1 kmh 30.47 in1031.8 mb 0.00 in0.0 mm 0.00 in0.0 mm 0.00 in0.0 mm
08:00 AM 13.6°F-10.2°C -3.5°F-19.7°C 46% 5.0 mph NE8.0 kmh NE 9.4 mph15.1 kmh 30.47 in1031.8 mb 0.00 in0.0 mm 0.00 in0.0 mm 0.00 in0.0 mm
08:05 AM 14.0°F-10.0°C -2.2°F-19.0°C 48% 5.6 mph NE9.0 kmh NE 8.0 mph12.9 kmh 30.47 in1031.8 mb 0.00 in0.0 mm 0.00 in0.0 mm 0.00 in0.0 mm
08:11 AM 14.2°F-9.9°C -2.0°F-18.9°C 48% 5.8 mph NE9.3 kmh NE 8.6 mph13.8 kmh 30.47 in1031.8 mb 0.00 in0.0 mm 0.00 in0.0 mm 0.00 in0.0 mm
08:15 AM 14.5°F-9.7°C -1.8°F-18.8°C 48% 5.8 mph NE9.3 kmh NE 8.6 mph13.8 kmh 30.47 in1031.8 mb 0.00 in0.0 mm 0.00 in0.0 mm 0.00 in0.0 mm
08:22 AM 15.1°F-9.4°C -1.2°F-18.4°C 48% 5.3 mph NE8.5 kmh NE 8.6 mph13.8 kmh 30.47 in1031.8 mb 0.00 in0.0 mm 0.00 in0.0 mm 0.00 in0.0 mm
08:27 AM 15.1°F-9.4°C -1.2°F-18.4°C 48% 6.0 mph NNE9.7 kmh NNE 10.8 mph17.4 kmh 30.50 in1032.8 mb 0.00 in0.0 mm 0.00 in0.0 mm 0.00 in0.0 mm
08:33 AM 16.0°F-8.9°C -0.4°F-18.0°C 48% 7.8 mph NE12.6 kmh NE 10.8 mph17.4 kmh 30.50 in1032.8 mb 0.00 in0.0 mm 0.00 in0.0 mm 0.00 in0.0 mm
08:38 AM 16.5°F-8.6°C 0.1°F-17.7°C 48% 8.4 mph NE13.5 kmh NE 11.2 mph18.0 kmh 30.50 in1032.8 mb 0.00 in0.0 mm 0.00 in0.0 mm 0.00 in0.0 mm
08:43 AM 16.7°F-8.5°C 0.3°F-17.6°C 48% 9.2 mph NE14.8 kmh NE 13.0 mph20.9 kmh 30.50 in1032.8 mb 0.00 in0.0 mm 0.00 in0.0 mm 0.00 in0.0 mm
08:48 AM 16.5°F-8.6°C -0.4°F-18.0°C 47% 11.5 mph NE18.5 kmh NE 15.6 mph25.1 kmh 30.50 in1032.8 mb 0.00 in0.0 mm 0.00 in0.0 mm 0.00 in0.0 mm
08:54 AM 16.5°F-8.6°C -0.4°F-18.0°C 47% 7.1 mph NE11.4 kmh NE 15.6 mph25.1 kmh 30.47 in1031.8 mb 0.00 in0.0 mm 0.00 in0.0 mm 0.00 in0.0 mm
08:59 AM 16.3°F-8.7°C -0.6°F-18.1°C 47% 8.1 mph NE13.0 kmh NE 13.0 mph20.9 kmh 30.47 in1031.8 mb 0.00 in0.0 mm 0.00 in0.0 mm 0.00 in0.0 mm
09:05 AM 16.5°F-8.6°C -0.4°F-18.0°C 47% 6.0 mph NE9.7 kmh NE 13.0 mph20.9 kmh 30.47 in1031.8 mb 0.00 in0.0 mm 0.00 in0.0 mm 0.00 in0.0 mm
09:10 AM 16.5°F-8.6°C -0.4°F-18.0°C 47% 8.2 mph NE13.2 kmh NE 11.6 mph18.7 kmh 30.47 in1031.8 mb 0.00 in0.0 mm 0.00 in0.0 mm 0.00 in0.0 mm
09:15 AM 16.7°F-8.5°C -0.2°F-17.9°C 47% 9.0 mph NE14.5 kmh NE 14.4 mph23.2 kmh 30.47 in1031.8 mb 0.00 in0.0 mm 0.00 in0.0 mm 0.00 in0.0 mm
09:21 AM 17.1°F-8.3°C 0.2°F-17.7°C 47% 5.9 mph NE9.5 kmh NE 11.6 mph18.7 kmh 30.47 in1031.8 mb 0.00 in0.0 mm 0.00 in0.0 mm 0.00 in0.0 mm
09:25 AM 17.4°F-8.1°C 0.4°F-17.6°C 47% 7.3 mph NE11.7 kmh NE 9.8 mph15.8 kmh 30.47 in1031.8 mb 0.00 in0.0 mm 0.00 in0.0 mm 0.00 in0.0 mm
09:30 AM 17.4°F-8.1°C 0.4°F-17.6°C 47% 10.6 mph NE17.1 kmh NE 12.6 mph20.3 kmh 30.47 in1031.8 mb 0.00 in0.0 mm 0.00 in0.0 mm 0.00 in0.0 mm
09:35 AM 17.8°F-7.9°C 0.3°F-17.6°C 46% 7.8 mph NE12.6 kmh NE 12.6 mph20.3 kmh 30.47 in1031.8 mb 0.00 in0.0 mm 0.00 in0.0 mm 0.00 in0.0 mm
09:40 AM 18.0°F-7.8°C 0.5°F-17.5°C 46% 8.8 mph NE14.2 kmh NE 11.6 mph18.7 kmh 30.50 in1032.8 mb 0.00 in0.0 mm 0.00 in0.0 mm 0.00 in0.0 mm
09:47 AM 18.7°F-7.4°C 1.2°F-17.1°C 46% 8.8 mph NE14.2 kmh NE 13.0 mph20.9 kmh 30.50 in1032.8 mb 0.00 in0.0 mm 0.00 in0.0 mm 0.00 in0.0 mm
09:52 AM 19.2°F-7.1°C 1.6°F-16.9°C 46% 11.9 mph N19.2 kmh N 17.8 mph28.6 kmh 30.50 in1032.8 mb 0.00 in0.0 mm 0.00 in0.0 mm 0.00 in0.0 mm
09:57 AM 19.8°F-6.8°C 1.7°F-16.8°C 45% 7.5 mph ENE12.1 kmh ENE 17.8 mph28.6 kmh 30.47 in1031.8 mb 0.00 in0.0 mm 0.00 in0.0 mm 0.00 in0.0 mm
10:02 AM 20.0°F-6.7°C 2.0°F-16.7°C 45% 10.0 mph NE16.1 kmh NE 15.6 mph25.1 kmh 30.47 in1031.8 mb 0.00 in0.0 mm 0.00 in0.0 mm 0.00 in0.0 mm
10:07 AM 21.1°F-6.1°C 3.0°F-16.1°C 45% 5.7 mph NNE9.2 kmh NNE 15.6 mph25.1 kmh 30.47 in1031.8 mb 0.00 in0.0 mm 0.00 in0.0 mm 0.00 in0.0 mm
10:12 AM 21.3°F-5.9°C 3.2°F-16.0°C 45% 7.3 mph NE11.7 kmh NE 14.8 mph23.8 kmh 30.50 in1032.8 mb 0.00 in0.0 mm 0.00 in0.0 mm 0.00 in0.0 mm
10:17 AM 21.3°F-5.9°C 2.7°F-16.3°C 44% 10.3 mph NNE16.6 kmh NNE 13.0 mph20.9 kmh 30.50 in1032.8 mb 0.00 in0.0 mm 0.00 in0.0 mm 0.00 in0.0 mm
10:22 AM 21.5°F-5.8°C 2.8°F-16.2°C 44% 10.6 mph NE17.1 kmh NE 17.8 mph28.6 kmh 30.50 in1032.8 mb 0.00 in0.0 mm 0.00 in0.0 mm 0.00 in0.0 mm
10:29 AM 21.6°F-5.8°C 2.4°F-16.4°C 43% 8.5 mph NE13.7 kmh NE 17.8 mph28.6 kmh 30.50 in1032.8 mb 0.00 in0.0 mm 0.00 in0.0 mm 0.00 in0.0 mm
10:34 AM 21.8°F-5.7°C 3.1°F-16.1°C 44% 10.2 mph NNE16.4 kmh NNE 17.0 mph27.4 kmh 30.50 in1032.8 mb 0.00 in0.0 mm 0.00 in0.0 mm 0.00 in0.0 mm
10:39 AM 22.2°F-5.4°C 3.0°F-16.1°C 43% 10.0 mph NE16.1 kmh NE 17.4 mph28.0 kmh 30.50 in1032.8 mb 0.00 in0.0 mm 0.00 in0.0 mm 0.00 in0.0 mm
10:44 AM 22.2°F-5.4°C 3.0°F-16.1°C 43% 11.6 mph NNE18.7 kmh NNE 20.2 mph32.5 kmh 30.50 in1032.8 mb 0.00 in0.0 mm 0.00 in0.0 mm 0.00 in0.0 mm
10:49 AM 22.0°F-5.6°C 2.3°F-16.5°C 42% 13.9 mph NNE22.4 kmh NNE 20.2 mph32.5 kmh 30.50 in1032.8 mb 0.00 in0.0 mm 0.00 in0.0 mm 0.00 in0.0 mm
10:54 AM 22.9°F-5.1°C 3.1°F-16.1°C 42% 12.3 mph NNE19.8 kmh NNE 20.2 mph32.5 kmh 30.50 in1032.8 mb 0.00 in0.0 mm 0.00 in0.0 mm 0.00 in0.0 mm
11:00 AM 23.4°F-4.8°C 3.0°F-16.1°C 41% 13.0 mph NNE20.9 kmh NNE 20.2 mph32.5 kmh 30.50 in1032.8 mb 0.00 in0.0 mm 0.00 in0.0 mm 0.00 in0.0 mm
11:05 AM 23.4°F-4.8°C 2.5°F-16.4°C 40% 10.4 mph NE16.7 kmh NE 17.0 mph27.4 kmh 30.50 in1032.8 mb 0.00 in0.0 mm 0.00 in0.0 mm 0.00 in0.0 mm
11:10 AM 23.4°F-4.8°C 1.3°F-17.1°C 38% 13.9 mph NE22.4 kmh NE 21.4 mph34.4 kmh 30.47 in1031.8 mb 0.00 in0.0 mm 0.00 in0.0 mm 0.00 in0.0 mm
11:15 AM 24.3°F-4.3°C 2.7°F-16.3°C 39% 9.0 mph N14.5 kmh N 21.4 mph34.4 kmh 30.47 in1031.8 mb 0.00 in0.0 mm 0.00 in0.0 mm 0.00 in0.0 mm
11:20 AM 24.7°F-4.1°C 1.9°F-16.7°C 37% 13.5 mph NNE21.7 kmh NNE 21.4 mph34.4 kmh 30.47 in1031.8 mb 0.00 in0.0 mm 0.00 in0.0 mm 0.00 in0.0 mm
11:25 AM 24.9°F-3.9°C 2.1°F-16.6°C 37% 11.4 mph N18.3 kmh N 21.4 mph34.4 kmh 30.50 in1032.8 mb 0.00 in0.0 mm 0.00 in0.0 mm 0.00 in0.0 mm
11:31 AM 26.0°F-3.3°C 2.5°F-16.4°C 36% 12.6 mph ENE20.3 kmh ENE 22.4 mph36.0 kmh 30.50 in1032.8 mb 0.00 in0.0 mm 0.00 in0.0 mm 0.00 in0.0 mm
11:36 AM 26.5°F-3.1°C 2.9°F-16.2°C 36% 7.2 mph ENE11.6 kmh ENE 22.4 mph36.0 kmh 30.50 in1032.8 mb 0.00 in0.0 mm 0.00 in0.0 mm 0.00 in0.0 mm
11:41 AM 26.7°F-2.9°C 3.1°F-16.1°C 36% 7.0 mph NE11.3 kmh NE 14.8 mph23.8 kmh 30.50 in1032.8 mb 0.00 in0.0 mm 0.00 in0.0 mm 0.00 in0.0 mm
11:46 AM 26.0°F-3.3°C 1.3°F-17.1°C 34% 12.3 mph NNE19.8 kmh NNE 17.0 mph27.4 kmh 30.50 in1032.8 mb 0.00 in0.0 mm 0.00 in0.0 mm 0.00 in0.0 mm
11:52 AM 26.0°F-3.3°C 1.3°F-17.1°C 34% 11.3 mph NE18.2 kmh NE 24.2 mph38.9 kmh 30.50 in1032.8 mb 0.00 in0.0 mm 0.00 in0.0 mm 0.00 in0.0 mm
11:57 AM 26.3°F-3.2°C 0.9°F-17.3°C 33% 14.7 mph NNE23.7 kmh NNE 24.2 mph38.9 kmh 30.47 in1031.8 mb 0.00 in0.0 mm 0.00 in0.0 mm 0.00 in0.0 mm
12:02 PM 26.3°F-3.2°C 0.9°F-17.3°C 33% 10.2 mph NE16.4 kmh NE 18.8 mph30.3 kmh 30.47 in1031.8 mb 0.00 in0.0 mm 0.00 in0.0 mm 0.00 in0.0 mm
12:07 PM 26.7°F-2.9°C -0.1°F-17.8°C 31% 13.3 mph ENE21.4 kmh ENE 21.4 mph34.4 kmh 30.47 in1031.8 mb 0.00 in0.0 mm 0.00 in0.0 mm 0.00 in0.0 mm
12:12 PM 27.2°F-2.7°C 0.3°F-17.6°C 31% 8.5 mph ENE13.7 kmh ENE 21.4 mph34.4 kmh 30.47 in1031.8 mb 0.00 in0.0 mm 0.00 in0.0 mm 0.00 in0.0 mm
12:17 PM 27.4°F-2.6°C 0.5°F-17.5°C 31% 12.9 mph NE20.8 kmh NE 15.2 mph24.5 kmh 30.47 in1031.8 mb 0.00 in0.0 mm 0.00 in0.0 mm 0.00 in0.0 mm
12:23 PM 27.8°F-2.3°C 0.9°F-17.3°C 31% 9.7 mph N15.6 kmh N 15.2 mph24.5 kmh 30.47 in1031.8 mb 0.00 in0.0 mm 0.00 in0.0 mm 0.00 in0.0 mm
12:28 PM 26.9°F-2.8°C -3.6°F-19.8°C 26% 15.0 mph NNE24.1 kmh NNE 20.2 mph32.5 kmh 30.47 in1031.8 mb 0.00 in0.0 mm 0.00 in0.0 mm 0.00 in0.0 mm
12:33 PM 26.9°F-2.8°C -7.9°F-22.2°C 21% 13.3 mph N21.4 kmh N 20.2 mph32.5 kmh 30.47 in1031.8 mb 0.00 in0.0 mm 0.00 in0.0 mm 0.00 in0.0 mm
12:38 PM 27.0°F-2.8°C -3.5°F-19.7°C 26% 9.4 mph N15.1 kmh N 19.2 mph30.9 kmh 30.45 in1031.2 mb 0.00 in0.0 mm 0.00 in0.0 mm 0.00 in0.0 mm
12:43 PM 27.6°F-2.4°C -3.0°F-19.4°C 26% 9.1 mph N14.6 kmh N 17.4 mph28.0 kmh 30.45 in1031.2 mb 0.00 in0.0 mm 0.00 in0.0 mm 0.00 in0.0 mm
12:48 PM 27.9°F-2.3°C -10.1°F-23.4°C 18% 15.2 mph NE24.5 kmh NE 24.2 mph38.9 kmh 30.45 in1031.2 mb 0.00 in0.0 mm 0.00 in0.0 mm 0.00 in0.0 mm
12:54 PM 28.3°F-2.1°C -6.7°F-21.5°C 21% 11.7 mph E18.8 kmh E 19.6 mph31.5 kmh 30.42 in1030.1 mb 0.00 in0.0 mm 0.00 in0.0 mm 0.00 in0.0 mm
12:59 PM 29.0°F-1.7°C -9.2°F-22.9°C 18% 12.3 mph ENE19.8 kmh ENE 18.4 mph29.6 kmh 30.42 in1030.1 mb 0.00 in0.0 mm 0.00 in0.0 mm 0.00 in0.0 mm
01:04 PM 30.1°F-1.1°C -6.2°F-21.2°C 20% 8.6 mph NE13.8 kmh NE 18.4 mph29.6 kmh 30.42 in1030.1 mb 0.00 in0.0 mm 0.00 in0.0 mm 0.00 in0.0 mm
01:09 PM 29.7°F-1.3°C -8.6°F-22.6°C 18% 12.2 mph NNE19.6 kmh NNE 21.4 mph34.4 kmh 30.45 in1031.2 mb 0.00 in0.0 mm 0.00 in0.0 mm 0.00 in0.0 mm
01:14 PM 30.1°F-1.1°C -6.2°F-21.2°C 20% 5.7 mph ENE9.2 kmh ENE 21.4 mph34.4 kmh 30.45 in1031.2 mb 0.00 in0.0 mm 0.00 in0.0 mm 0.00 in0.0 mm
01:19 PM 29.4°F-1.4°C -15.4°F-26.3°C 13% 13.6 mph NNE21.9 kmh NNE 21.0 mph33.8 kmh 30.45 in1031.2 mb 0.00 in0.0 mm 0.00 in0.0 mm 0.00 in0.0 mm
01:24 PM 29.6°F-1.3°C -16.9°F-27.2°C 12% 10.0 mph ENE16.1 kmh ENE 20.2 mph32.5 kmh 30.45 in1031.2 mb 0.00 in0.0 mm 0.00 in0.0 mm 0.00 in0.0 mm
01:29 PM 27.9°F-2.3°C -18.2°F-27.9°C 12% 12.1 mph N19.5 kmh N 21.0 mph33.8 kmh 30.45 in1031.2 mb 0.00 in0.0 mm 0.00 in0.0 mm 0.00 in0.0 mm
01:34 PM 28.1°F-2.2°C -18.1°F-27.8°C 12% 10.6 mph N17.1 kmh N 21.0 mph33.8 kmh 30.45 in1031.2 mb 0.00 in0.0 mm 0.00 in0.0 mm 0.00 in0.0 mm
01:39 PM 28.1°F-2.2°C -16.5°F-26.9°C 13% 10.5 mph N16.9 kmh N 21.4 mph34.4 kmh 30.45 in1031.2 mb 0.00 in0.0 mm 0.00 in0.0 mm 0.00 in0.0 mm
01:44 PM 27.8°F-2.3°C -16.7°F-27.1°C 13% 10.2 mph N16.4 kmh N 26.4 mph42.5 kmh 30.45 in1031.2 mb 0.00 in0.0 mm 0.00 in0.0 mm 0.00 in0.0 mm
01:49 PM 28.5°F-1.9°C -13.3°F-25.2°C 15% 5.3 mph NNE8.5 kmh NNE 26.4 mph42.5 kmh 30.45 in1031.2 mb 0.00 in0.0 mm 0.00 in0.0 mm 0.00 in0.0 mm
01:56 PM 27.8°F-2.3°C -16.7°F-27.1°C 13% 9.3 mph N15.0 kmh N 21.4 mph34.4 kmh 30.45 in1031.2 mb 0.00 in0.0 mm 0.00 in0.0 mm 0.00 in0.0 mm
02:01 PM 26.9°F-2.8°C -19.0°F-28.3°C 12% 11.1 mph N17.9 kmh N 26.0 mph41.8 kmh 30.45 in1031.2 mb 0.00 in0.0 mm 0.00 in0.0 mm 0.00 in0.0 mm
02:06 PM 27.0°F-2.8°C -17.3°F-27.4°C 13% 12.8 mph NE20.6 kmh NE 26.0 mph41.8 kmh 30.45 in1031.2 mb 0.00 in0.0 mm 0.00 in0.0 mm 0.00 in0.0 mm
02:11 PM 27.2°F-2.7°C -13.1°F-25.1°C 16% 7.8 mph NNE12.6 kmh NNE 19.6 mph31.5 kmh 30.42 in1030.1 mb 0.00 in0.0 mm 0.00 in0.0 mm 0.00 in0.0 mm
02:18 PM 27.0°F-2.8°C -17.3°F-27.4°C 13% 5.1 mph N8.2 kmh N 15.2 mph24.5 kmh 30.42 in1030.1 mb 0.00 in0.0 mm 0.00 in0.0 mm 0.00 in0.0 mm
02:23 PM 26.7°F-2.9°C -17.6°F-27.6°C 13% 13.4 mph N21.6 kmh N 21.4 mph34.4 kmh 30.42 in1030.1 mb 0.00 in0.0 mm 0.00 in0.0 mm 0.00 in0.0 mm
02:28 PM 27.2°F-2.7°C -13.1°F-25.1°C 16% 8.9 mph N14.3 kmh N 21.4 mph34.4 kmh 30.42 in1030.1 mb 0.00 in0.0 mm 0.00 in0.0 mm 0.00 in0.0 mm
02:33 PM 27.4°F-2.6°C -17.0°F-27.2°C 13% 7.0 mph N11.3 kmh N 20.6 mph33.2 kmh 30.42 in1030.1 mb 0.00 in0.0 mm 0.00 in0.0 mm 0.00 in0.0 mm
02:39 PM 26.3°F-3.2°C -16.4°F-26.9°C 14% 14.4 mph N23.2 kmh N 21.4 mph34.4 kmh 30.42 in1030.1 mb 0.00 in0.0 mm 0.00 in0.0 mm 0.00 in0.0 mm
02:44 PM 26.3°F-3.2°C -13.8°F-25.4°C 16% 12.7 mph N20.4 kmh N 25.0 mph40.2 kmh 30.42 in1030.1 mb 0.00 in0.0 mm 0.00 in0.0 mm 0.00 in0.0 mm
02:49 PM 26.7°F-2.9°C -13.5°F-25.3°C 16% 3.5 mph NE5.6 kmh NE 25.0 mph40.2 kmh 30.42 in1030.1 mb 0.00 in0.0 mm 0.00 in0.0 mm 0.00 in0.0 mm
02:54 PM 26.3°F-3.2°C -16.4°F-26.9°C 14% 14.4 mph N23.2 kmh N 20.2 mph32.5 kmh 30.39 in1029.1 mb 0.00 in0.0 mm 0.00 in0.0 mm 0.00 in0.0 mm
03:00 PM 26.3°F-3.2°C -16.4°F-26.9°C 14% 10.5 mph N16.9 kmh N 20.6 mph33.2 kmh 30.39 in1029.1 mb 0.00 in0.0 mm 0.00 in0.0 mm 0.00 in0.0 mm
03:05 PM 26.0°F-3.3°C -18.1°F-27.8°C 13% 9.8 mph NNE15.8 kmh NNE 26.4 mph42.5 kmh 30.39 in1029.1 mb 0.00 in0.0 mm 0.00 in0.0 mm 0.00 in0.0 mm
03:10 PM 26.0°F-3.3°C -18.1°F-27.8°C 13% 11.3 mph N18.2 kmh N 26.4 mph42.5 kmh 30.42 in1030.1 mb 0.00 in0.0 mm 0.00 in0.0 mm 0.00 in0.0 mm
03:15 PM 26.0°F-3.3°C -18.1°F-27.8°C 13% 13.0 mph N20.9 kmh N 19.6 mph31.5 kmh 30.42 in1030.1 mb 0.00 in0.0 mm 0.00 in0.0 mm 0.00 in0.0 mm
03:20 PM 25.6°F-3.6°C -18.5°F-28.1°C 13% 13.3 mph NE21.4 kmh NE 20.6 mph33.2 kmh 30.42 in1030.1 mb 0.00 in0.0 mm 0.00 in0.0 mm 0.00 in0.0 mm
03:25 PM 25.4°F-3.7°C -18.6°F-28.1°C 13% 13.0 mph N20.9 kmh N 21.0 mph33.8 kmh 30.42 in1030.1 mb 0.00 in0.0 mm 0.00 in0.0 mm 0.00 in0.0 mm
03:31 PM 25.6°F-3.6°C -14.4°F-25.8°C 16% 9.1 mph N14.6 kmh N 21.0 mph33.8 kmh 30.42 in1030.1 mb 0.00 in0.0 mm 0.00 in0.0 mm 0.00 in0.0 mm
03:35 PM 25.2°F-3.8°C -17.3°F-27.4°C 14% 11.5 mph NNE18.5 kmh NNE 21.4 mph34.4 kmh 30.42 in1030.1 mb 0.00 in0.0 mm 0.00 in0.0 mm 0.00 in0.0 mm
03:41 PM 25.2°F-3.8°C -14.7°F-25.9°C 16% 10.7 mph NNE17.2 kmh NNE 22.0 mph35.4 kmh 30.42 in1030.1 mb 0.00 in0.0 mm 0.00 in0.0 mm 0.00 in0.0 mm
03:46 PM 25.2°F-3.8°C -14.7°F-25.9°C 16% 8.7 mph NNE14.0 kmh NNE 22.0 mph35.4 kmh 30.42 in1030.1 mb 0.00 in0.0 mm 0.00 in0.0 mm 0.00 in0.0 mm
03:51 PM 25.4°F-3.7°C -11.1°F-23.9°C 19% 11.7 mph N18.8 kmh N 21.0 mph33.8 kmh 30.42 in1030.1 mb 0.00 in0.0 mm 0.00 in0.0 mm 0.00 in0.0 mm
03:56 PM 25.2°F-3.8°C -11.3°F-24.1°C 19% 10.3 mph N16.6 kmh N 21.0 mph33.8 kmh 30.45 in1031.2 mb 0.00 in0.0 mm 0.00 in0.0 mm 0.00 in0.0 mm
04:01 PM 25.2°F-3.8°C -9.3°F-22.9°C 21% 7.2 mph N11.6 kmh N 19.2 mph30.9 kmh 30.45 in1031.2 mb 0.00 in0.0 mm 0.00 in0.0 mm 0.00 in0.0 mm
04:06 PM 25.2°F-3.8°C -9.3°F-22.9°C 21% 10.8 mph N17.4 kmh N 17.4 mph28.0 kmh 30.45 in1031.2 mb 0.00 in0.0 mm 0.00 in0.0 mm 0.00 in0.0 mm
04:11 PM 25.2°F-3.8°C -9.3°F-22.9°C 21% 16.9 mph NNE27.2 kmh NNE 27.8 mph44.7 kmh 30.45 in1031.2 mb 0.00 in0.0 mm 0.00 in0.0 mm 0.00 in0.0 mm
04:16 PM 25.2°F-3.8°C -9.3°F-22.9°C 21% 12.3 mph NNE19.8 kmh NNE 27.8 mph44.7 kmh 30.45 in1031.2 mb 0.00 in0.0 mm 0.00 in0.0 mm 0.00 in0.0 mm
04:21 PM 25.1°F-3.8°C -9.4°F-23.0°C 21% 11.3 mph NE18.2 kmh NE 22.0 mph35.4 kmh 30.45 in1031.2 mb 0.00 in0.0 mm 0.00 in0.0 mm 0.00 in0.0 mm
04:26 PM 25.1°F-3.8°C -9.4°F-23.0°C 21% 13.1 mph N21.1 kmh N 21.4 mph34.4 kmh 30.45 in1031.2 mb 0.00 in0.0 mm 0.00 in0.0 mm 0.00 in0.0 mm
04:32 PM 24.9°F-3.9°C -6.9°F-21.6°C 24% 11.6 mph NNE18.7 kmh NNE 17.8 mph28.6 kmh 30.45 in1031.2 mb 0.00 in0.0 mm 0.00 in0.0 mm 0.00 in0.0 mm
04:37 PM 24.9°F-3.9°C -5.3°F-20.7°C 26% 8.5 mph NNE13.7 kmh NNE 13.0 mph20.9 kmh 30.45 in1031.2 mb 0.00 in0.0 mm 0.00 in0.0 mm 0.00 in0.0 mm
04:43 PM 24.9°F-3.9°C -5.3°F-20.7°C 26% 6.2 mph NNE10.0 kmh NNE 17.8 mph28.6 kmh 30.45 in1031.2 mb 0.00 in0.0 mm 0.00 in0.0 mm 0.00 in0.0 mm
04:48 PM 24.7°F-4.1°C -3.2°F-19.6°C 29% 7.6 mph NNE12.2 kmh NNE 17.8 mph28.6 kmh 30.45 in1031.2 mb 0.00 in0.0 mm 0.00 in0.0 mm 0.00 in0.0 mm
04:53 PM 24.5°F-4.2°C -3.4°F-19.7°C 29% 9.2 mph NNE14.8 kmh NNE 17.8 mph28.6 kmh 30.45 in1031.2 mb 0.00 in0.0 mm 0.00 in0.0 mm 0.00 in0.0 mm
04:58 PM 24.5°F-4.2°C -3.4°F-19.7°C 29% 12.1 mph NNE19.5 kmh NNE 17.8 mph28.6 kmh 30.45 in1031.2 mb 0.00 in0.0 mm 0.00 in0.0 mm 0.00 in0.0 mm
05:03 PM 24.3°F-4.3°C -1.5°F-18.6°C 32% 10.4 mph NE16.7 kmh NE 15.6 mph25.1 kmh 30.45 in1031.2 mb 0.00 in0.0 mm 0.00 in0.0 mm 0.00 in0.0 mm
05:08 PM 24.2°F-4.3°C -1.6°F-18.7°C 32% 9.0 mph NE14.5 kmh NE 15.6 mph25.1 kmh 30.45 in1031.2 mb 0.00 in0.0 mm 0.00 in0.0 mm 0.00 in0.0 mm
05:13 PM 24.0°F-4.4°C -1.8°F-18.8°C 32% 7.3 mph NNE11.7 kmh NNE 14.4 mph23.2 kmh 30.45 in1031.2 mb 0.00 in0.0 mm 0.00 in0.0 mm 0.00 in0.0 mm
05:18 PM 23.6°F-4.7°C -2.1°F-18.9°C 32% 5.1 mph ENE8.2 kmh ENE 10.8 mph17.4 kmh 30.45 in1031.2 mb 0.00 in0.0 mm 0.00 in0.0 mm 0.00 in0.0 mm
05:23 PM 23.6°F-4.7°C -1.5°F-18.6°C 33% 11.7 mph NNE18.8 kmh NNE 18.4 mph29.6 kmh 30.45 in1031.2 mb 0.00 in0.0 mm 0.00 in0.0 mm 0.00 in0.0 mm
05:28 PM 23.4°F-4.8°C -1.7°F-18.7°C 33% 7.1 mph NNE11.4 kmh NNE 22.4 mph36.0 kmh 30.45 in1031.2 mb 0.00 in0.0 mm 0.00 in0.0 mm 0.00 in0.0 mm
05:33 PM 23.3°F-4.8°C -1.8°F-18.8°C 33% 7.6 mph N12.2 kmh N 22.4 mph36.0 kmh 30.45 in1031.2 mb 0.00 in0.0 mm 0.00 in0.0 mm 0.00 in0.0 mm
05:38 PM 23.1°F-4.9°C -1.9°F-18.8°C 33% 7.1 mph NNE11.4 kmh NNE 12.6 mph20.3 kmh 30.45 in1031.2 mb 0.00 in0.0 mm 0.00 in0.0 mm 0.00 in0.0 mm
05:46 PM 22.7°F-5.2°C -1.7°F-18.7°C 34% 6.0 mph NE9.7 kmh NE 12.6 mph20.3 kmh 30.45 in1031.2 mb 0.00 in0.0 mm 0.00 in0.0 mm 0.00 in0.0 mm
05:51 PM 22.5°F-5.3°C -1.8°F-18.8°C 34% 8.1 mph NE13.0 kmh NE 12.6 mph20.3 kmh 30.45 in1031.2 mb 0.00 in0.0 mm 0.00 in0.0 mm 0.00 in0.0 mm
05:56 PM 22.4°F-5.3°C -1.9°F-18.8°C 34% 5.6 mph N9.0 kmh N 12.0 mph19.3 kmh 30.42 in1030.1 mb 0.00 in0.0 mm 0.00 in0.0 mm 0.00 in0.0 mm
06:01 PM 22.2°F-5.4°C -2.1°F-18.9°C 34% 8.2 mph NNE13.2 kmh NNE 10.8 mph17.4 kmh 30.42 in1030.1 mb 0.00 in0.0 mm 0.00 in0.0 mm 0.00 in0.0 mm
06:06 PM 22.0°F-5.6°C -2.3°F-19.1°C 34% 5.4 mph N8.7 kmh N 9.8 mph15.8 kmh 30.42 in1030.1 mb 0.00 in0.0 mm 0.00 in0.0 mm 0.00 in0.0 mm
06:11 PM 22.0°F-5.6°C -1.7°F-18.7°C 35% 9.0 mph NNE14.5 kmh NNE 13.0 mph20.9 kmh 30.45 in1031.2 mb 0.00 in0.0 mm 0.00 in0.0 mm 0.00 in0.0 mm
06:16 PM 21.8°F-5.7°C -1.9°F-18.8°C 35% 7.5 mph NNE12.1 kmh NNE 13.0 mph20.9 kmh 30.45 in1031.2 mb 0.00 in0.0 mm 0.00 in0.0 mm 0.00 in0.0 mm
06:21 PM 21.8°F-5.7°C -1.9°F-18.8°C 35% 8.2 mph NNE13.2 kmh NNE 12.6 mph20.3 kmh 30.45 in1031.2 mb 0.00 in0.0 mm 0.00 in0.0 mm 0.00 in0.0 mm
06:26 PM 21.5°F-5.8°C -2.1°F-18.9°C 35% 5.5 mph NE8.9 kmh NE 12.6 mph20.3 kmh 30.45 in1031.2 mb 0.00 in0.0 mm 0.00 in0.0 mm 0.00 in0.0 mm
06:31 PM 21.3°F-5.9°C -2.3°F-19.1°C 35% 5.5 mph NNE8.9 kmh NNE 9.0 mph14.5 kmh 30.45 in1031.2 mb 0.00 in0.0 mm 0.00 in0.0 mm 0.00 in0.0 mm
06:36 PM 21.1°F-6.1°C -1.9°F-18.8°C 36% 7.2 mph NNE11.6 kmh NNE 8.6 mph13.8 kmh 30.45 in1031.2 mb 0.00 in0.0 mm 0.00 in0.0 mm 0.00 in0.0 mm
06:41 PM 21.1°F-6.1°C -1.3°F-18.5°C 37% 8.6 mph NNE13.8 kmh NNE 12.0 mph19.3 kmh 30.45 in1031.2 mb 0.00 in0.0 mm 0.00 in0.0 mm 0.00 in0.0 mm
06:46 PM 21.3°F-5.9°C -1.7°F-18.7°C 36% 9.8 mph N15.8 kmh N 12.0 mph19.3 kmh 30.45 in1031.2 mb 0.00 in0.0 mm 0.00 in0.0 mm 0.00 in0.0 mm
06:51 PM 21.3°F-5.9°C -1.7°F-18.7°C 36% 12.9 mph NNE20.8 kmh NNE 16.2 mph26.1 kmh 30.45 in1031.2 mb 0.00 in0.0 mm 0.00 in0.0 mm 0.00 in0.0 mm
06:57 PM 21.3°F-5.9°C -1.7°F-18.7°C 36% 10.3 mph N16.6 kmh N 16.2 mph26.1 kmh 30.47 in1031.8 mb 0.00 in0.0 mm 0.00 in0.0 mm 0.00 in0.0 mm
07:02 PM 21.3°F-5.9°C -1.7°F-18.7°C 36% 8.5 mph N13.7 kmh N 17.4 mph28.0 kmh 30.47 in1031.8 mb 0.00 in0.0 mm 0.00 in0.0 mm 0.00 in0.0 mm
07:07 PM 21.1°F-6.1°C -1.3°F-18.5°C 37% 9.2 mph NNE14.8 kmh NNE 17.4 mph28.0 kmh 30.47 in1031.8 mb 0.00 in0.0 mm 0.00 in0.0 mm 0.00 in0.0 mm
07:12 PM 21.1°F-6.1°C -1.3°F-18.5°C 37% 7.9 mph N12.7 kmh N 14.4 mph23.2 kmh 30.47 in1031.8 mb 0.00 in0.0 mm 0.00 in0.0 mm 0.00 in0.0 mm
07:17 PM 20.9°F-6.2°C -1.5°F-18.6°C 37% 11.0 mph NE17.7 kmh NE 13.0 mph20.9 kmh 30.47 in1031.8 mb 0.00 in0.0 mm 0.00 in0.0 mm 0.00 in0.0 mm
07:22 PM 20.9°F-6.2°C -0.9°F-18.3°C 38% 10.8 mph N17.4 kmh N 16.2 mph26.1 kmh 30.47 in1031.8 mb 0.00 in0.0 mm 0.00 in0.0 mm 0.00 in0.0 mm
07:27 PM 20.7°F-6.3°C -1.1°F-18.4°C 38% 13.0 mph NNE20.9 kmh NNE 16.2 mph26.1 kmh 30.47 in1031.8 mb 0.00 in0.0 mm 0.00 in0.0 mm 0.00 in0.0 mm
07:32 PM 20.6°F-6.3°C -1.2°F-18.4°C 38% 9.1 mph N14.6 kmh N 15.6 mph25.1 kmh 30.47 in1031.8 mb 0.00 in0.0 mm 0.00 in0.0 mm 0.00 in0.0 mm
07:37 PM 20.4°F-6.4°C -1.4°F-18.6°C 38% 8.9 mph N14.3 kmh N 13.0 mph20.9 kmh 30.47 in1031.8 mb 0.00 in0.0 mm 0.00 in0.0 mm 0.00 in0.0 mm
07:42 PM 20.2°F-6.6°C -1.5°F-18.6°C 38% 7.4 mph N11.9 kmh N 13.0 mph20.9 kmh 30.47 in1031.8 mb 0.00 in0.0 mm 0.00 in0.0 mm 0.00 in0.0 mm
07:48 PM 20.2°F-6.6°C -1.0°F-18.3°C 39% 7.1 mph N11.4 kmh N 12.0 mph19.3 kmh 30.47 in1031.8 mb 0.00 in0.0 mm 0.00 in0.0 mm 0.00 in0.0 mm
07:53 PM 19.9°F-6.7°C -1.3°F-18.5°C 39% 5.3 mph N8.5 kmh N 11.6 mph18.7 kmh 30.47 in1031.8 mb 0.00 in0.0 mm 0.00 in0.0 mm 0.00 in0.0 mm
07:58 PM 19.9°F-6.7°C -1.3°F-18.5°C 39% 5.9 mph N9.5 kmh N 8.6 mph13.8 kmh 30.47 in1031.8 mb 0.00 in0.0 mm 0.00 in0.0 mm 0.00 in0.0 mm
08:03 PM 19.8°F-6.8°C -1.4°F-18.6°C 39% 7.1 mph N11.4 kmh N 9.8 mph15.8 kmh 30.47 in1031.8 mb 0.00 in0.0 mm 0.00 in0.0 mm 0.00 in0.0 mm
08:08 PM 19.6°F-6.9°C -1.6°F-18.7°C 39% 4.8 mph N7.7 kmh N 9.8 mph15.8 kmh 30.47 in1031.8 mb 0.00 in0.0 mm 0.00 in0.0 mm 0.00 in0.0 mm
08:13 PM 19.4°F-7.0°C -1.2°F-18.4°C 40% 6.0 mph NNW9.7 kmh NNW 11.6 mph18.7 kmh 30.47 in1031.8 mb 0.00 in0.0 mm 0.00 in0.0 mm 0.00 in0.0 mm
08:21 PM 19.0°F-7.2°C -1.1°F-18.4°C 41% 7.2 mph N11.6 kmh N 12.6 mph20.3 kmh 30.47 in1031.8 mb 0.00 in0.0 mm 0.00 in0.0 mm 0.00 in0.0 mm
08:26 PM 19.2°F-7.1°C -0.9°F-18.3°C 41% 6.9 mph N11.1 kmh N 13.8 mph22.2 kmh 30.47 in1031.8 mb 0.00 in0.0 mm 0.00 in0.0 mm 0.00 in0.0 mm
08:32 PM 18.9°F-7.3°C -0.6°F-18.1°C 42% 8.0 mph N12.9 kmh N 13.8 mph22.2 kmh 30.47 in1031.8 mb 0.00 in0.0 mm 0.00 in0.0 mm 0.00 in0.0 mm
08:37 PM 18.7°F-7.4°C -0.8°F-18.2°C 42% 7.9 mph N12.7 kmh N 11.6 mph18.7 kmh 30.47 in1031.8 mb 0.00 in0.0 mm 0.00 in0.0 mm 0.00 in0.0 mm
08:42 PM 18.7°F-7.4°C -0.8°F-18.2°C 42% 5.6 mph N9.0 kmh N 11.2 mph18.0 kmh 30.47 in1031.8 mb 0.00 in0.0 mm 0.00 in0.0 mm 0.00 in0.0 mm
08:47 PM 18.5°F-7.5°C -0.5°F-18.1°C 43% 9.8 mph N15.8 kmh N 12.0 mph19.3 kmh 30.47 in1031.8 mb 0.00 in0.0 mm 0.00 in0.0 mm 0.00 in0.0 mm
08:52 PM 18.5°F-7.5°C -0.5°F-18.1°C 43% 9.0 mph NNE14.5 kmh NNE 13.0 mph20.9 kmh 30.47 in1031.8 mb 0.00 in0.0 mm 0.00 in0.0 mm 0.00 in0.0 mm
08:57 PM 18.5°F-7.5°C -0.5°F-18.1°C 43% 9.9 mph NNE15.9 kmh NNE 13.0 mph20.9 kmh 30.47 in1031.8 mb 0.00 in0.0 mm 0.00 in0.0 mm 0.00 in0.0 mm
09:02 PM 18.1°F-7.7°C -0.9°F-18.3°C 43% 6.4 mph N10.3 kmh N 13.0 mph20.9 kmh 30.47 in1031.8 mb 0.00 in0.0 mm 0.00 in0.0 mm 0.00 in0.0 mm
09:08 PM 18.0°F-7.8°C -0.9°F-18.3°C 43% 6.5 mph N10.5 kmh N 13.0 mph20.9 kmh 30.47 in1031.8 mb 0.00 in0.0 mm 0.00 in0.0 mm 0.00 in0.0 mm
09:13 PM 18.0°F-7.8°C -0.9°F-18.3°C 43% 7.1 mph N11.4 kmh N 11.2 mph18.0 kmh 30.47 in1031.8 mb 0.00 in0.0 mm 0.00 in0.0 mm 0.00 in0.0 mm
09:18 PM 17.6°F-8.0°C -0.8°F-18.2°C 44% 6.0 mph N9.7 kmh N 11.2 mph18.0 kmh 30.47 in1031.8 mb 0.00 in0.0 mm 0.00 in0.0 mm 0.00 in0.0 mm
09:23 PM 17.4°F-8.1°C -1.5°F-18.6°C 43% 3.9 mph N6.3 kmh N 9.0 mph14.5 kmh 30.47 in1031.8 mb 0.00 in0.0 mm 0.00 in0.0 mm 0.00 in0.0 mm
09:28 PM 17.4°F-8.1°C -1.0°F-18.3°C 44% 5.8 mph N9.3 kmh N 13.0 mph20.9 kmh 30.50 in1032.8 mb 0.00 in0.0 mm 0.00 in0.0 mm 0.00 in0.0 mm
09:33 PM 17.2°F-8.2°C -1.2°F-18.4°C 44% 5.6 mph N9.0 kmh N 13.0 mph20.9 kmh 30.50 in1032.8 mb 0.00 in0.0 mm 0.00 in0.0 mm 0.00 in0.0 mm
09:38 PM 17.1°F-8.3°C -1.3°F-18.5°C 44% 6.8 mph N10.9 kmh N 9.4 mph15.1 kmh 30.47 in1031.8 mb 0.00 in0.0 mm 0.00 in0.0 mm 0.00 in0.0 mm
09:44 PM 16.9°F-8.4°C -1.4°F-18.6°C 44% 4.2 mph N6.8 kmh N 8.0 mph12.9 kmh 30.47 in1031.8 mb 0.00 in0.0 mm 0.00 in0.0 mm 0.00 in0.0 mm
09:49 PM 16.7°F-8.5°C -1.6°F-18.7°C 44% 4.5 mph N7.2 kmh N 8.0 mph12.9 kmh 30.47 in1031.8 mb 0.00 in0.0 mm 0.00 in0.0 mm 0.00 in0.0 mm
09:54 PM 16.7°F-8.5°C -1.6°F-18.7°C 44% 6.2 mph N10.0 kmh N 8.6 mph13.8 kmh 30.50 in1032.8 mb 0.00 in0.0 mm 0.00 in0.0 mm 0.00 in0.0 mm
09:59 PM 16.5°F-8.6°C -1.8°F-18.8°C 44% 6.6 mph N10.6 kmh N 9.4 mph15.1 kmh 30.50 in1032.8 mb 0.00 in0.0 mm 0.00 in0.0 mm 0.00 in0.0 mm
10:04 PM 16.3°F-8.7°C -2.0°F-18.9°C 44% 4.6 mph N7.4 kmh N 9.4 mph15.1 kmh 30.50 in1032.8 mb 0.00 in0.0 mm 0.00 in0.0 mm 0.00 in0.0 mm
10:09 PM 16.3°F-8.7°C -2.0°F-18.9°C 44% 4.6 mph N7.4 kmh N 7.2 mph11.6 kmh 30.50 in1032.8 mb 0.00 in0.0 mm 0.00 in0.0 mm 0.00 in0.0 mm
10:14 PM 16.0°F-8.9°C -2.3°F-19.1°C 44% 5.0 mph N8.0 kmh N 8.6 mph13.8 kmh 30.50 in1032.8 mb 0.00 in0.0 mm 0.00 in0.0 mm 0.00 in0.0 mm
10:19 PM 15.8°F-9.0°C -2.5°F-19.2°C 44% 5.5 mph NNW8.9 kmh NNW 8.6 mph13.8 kmh 30.50 in1032.8 mb 0.00 in0.0 mm 0.00 in0.0 mm 0.00 in0.0 mm
10:25 PM 16.0°F-8.9°C -2.3°F-19.1°C 44% 6.1 mph N9.8 kmh N 11.2 mph18.0 kmh 30.50 in1032.8 mb 0.00 in0.0 mm 0.00 in0.0 mm 0.00 in0.0 mm
10:30 PM 16.0°F-8.9°C -2.3°F-19.1°C 44% 6.4 mph NNW10.3 kmh NNW 11.2 mph18.0 kmh 30.50 in1032.8 mb 0.00 in0.0 mm 0.00 in0.0 mm 0.00 in0.0 mm
10:35 PM 15.8°F-9.0°C -2.0°F-18.9°C 45% 6.6 mph N10.6 kmh N 11.6 mph18.7 kmh 30.50 in1032.8 mb 0.00 in0.0 mm 0.00 in0.0 mm 0.00 in0.0 mm
10:40 PM 15.6°F-9.1°C -2.1°F-18.9°C 45% 3.8 mph N6.1 kmh N 11.6 mph18.7 kmh 30.53 in1033.9 mb 0.00 in0.0 mm 0.00 in0.0 mm 0.00 in0.0 mm
10:46 PM 15.4°F-9.2°C -2.3°F-19.1°C 45% 5.4 mph N8.7 kmh N 7.2 mph11.6 kmh 30.53 in1033.9 mb 0.00 in0.0 mm 0.00 in0.0 mm 0.00 in0.0 mm
10:51 PM 15.3°F-9.3°C -2.4°F-19.1°C 45% 6.8 mph 10.9 kmh 9.4 mph15.1 kmh 30.53 in1033.9 mb 0.00 in0.0 mm 0.00 in0.0 mm 0.00 in0.0 mm
10:56 PM 15.1°F-9.4°C -2.6°F-19.2°C 45% 4.1 mph NNE6.6 kmh NNE 9.4 mph15.1 kmh 30.47 in1031.8 mb 0.00 in0.0 mm 0.00 in0.0 mm 0.00 in0.0 mm
11:01 PM 15.3°F-9.3°C -2.4°F-19.1°C 45% 5.4 mph N8.7 kmh N 8.0 mph12.9 kmh 30.47 in1031.8 mb 0.00 in0.0 mm 0.00 in0.0 mm 0.00 in0.0 mm
11:06 PM 14.9°F-9.5°C -2.8°F-19.3°C 45% 3.9 mph NNE6.3 kmh NNE 7.6 mph12.2 kmh 30.47 in1031.8 mb 0.00 in0.0 mm 0.00 in0.0 mm 0.00 in0.0 mm
11:11 PM 14.5°F-9.7°C -3.2°F-19.6°C 45% 3.6 mph NNE5.8 kmh NNE 8.0 mph12.9 kmh 30.47 in1031.8 mb 0.00 in0.0 mm 0.00 in0.0 mm 0.00 in0.0 mm
11:18 PM 14.4°F-9.8°C -3.2°F-19.6°C 45% 4.8 mph NNE7.7 kmh NNE 7.2 mph11.6 kmh 30.47 in1031.8 mb 0.00 in0.0 mm 0.00 in0.0 mm 0.00 in0.0 mm
11:23 PM 14.4°F-9.8°C -2.8°F-19.3°C 46% 5.7 mph N9.2 kmh N 10.8 mph17.4 kmh 30.47 in1031.8 mb 0.00 in0.0 mm 0.00 in0.0 mm 0.00 in0.0 mm
11:28 PM 14.4°F-9.8°C -3.2°F-19.6°C 45% 3.7 mph N6.0 kmh N 10.8 mph17.4 kmh 30.50 in1032.8 mb 0.00 in0.0 mm 0.00 in0.0 mm 0.00 in0.0 mm
11:33 PM 14.2°F-9.9°C -3.4°F-19.7°C 45% 4.6 mph NNE7.4 kmh NNE 6.2 mph10.0 kmh 30.50 in1032.8 mb 0.00 in0.0 mm 0.00 in0.0 mm 0.00 in0.0 mm
11:39 PM 13.6°F-10.2°C -3.5°F-19.7°C 46% Calm Calm 6.2 mph10.0 kmh 30.53 in1033.9 mb 0.00 in0.0 mm 0.00 in0.0 mm 0.00 in0.0 mm
11:44 PM 13.1°F-10.5°C -4.0°F-20.0°C 46% Calm Calm 3.2 mph5.1 kmh 30.53 in1033.9 mb 0.00 in0.0 mm 0.00 in0.0 mm 0.00 in0.0 mm
11:50 PM 12.6°F-10.8°C -4.4°F-20.2°C 46% Calm Calm 3.2 mph5.1 kmh 30.53 in1033.9 mb 0.00 in0.0 mm 0.00 in0.0 mm 0.00 in0.0 mm
11:55 PM 12.4°F-10.9°C -4.6°F-20.3°C 46% Calm Calm -- 30.53 in1033.9 mb 0.00 in0.0 mm 0.00 in0.0 mm 0.00 in0.0 mm